createdAt,value
2022-12-19T00:01:29.778Z,102915.19
2022-12-19T00:04:35.005Z,102920.53
2022-12-19T00:07:38.127Z,102924.97
2022-12-19T00:10:42.214Z,102938.34
2022-12-19T00:13:45.844Z,102938.37
2022-12-19T00:16:49.343Z,102937.50
2022-12-19T00:19:52.680Z,102932.25
2022-12-19T00:22:56.288Z,102933.16
2022-12-19T00:26:20.092Z,102932.34
2022-12-19T00:29:23.708Z,102928.78
2022-12-19T00:32:27.541Z,102929.69
2022-12-19T00:35:30.869Z,102926.16
2022-12-19T00:38:34.790Z,102932.41
2022-12-19T00:41:42.019Z,102924.47
2022-12-19T00:44:45.422Z,102929.78
2022-12-19T00:47:48.890Z,102925.34
2022-12-19T00:50:59.713Z,102929.78
2022-12-19T00:54:05.410Z,102925.34
2022-12-19T00:57:10.590Z,102918.28
2022-12-19T01:00:15.220Z,102920.94
2022-12-19T01:03:18.333Z,102916.50
2022-12-19T01:06:22.342Z,102909.38
2022-12-19T01:09:26.244Z,102906.78
2022-12-19T01:12:47.738Z,102910.25
2022-12-19T01:15:50.892Z,102919.16
2022-12-19T01:18:54.395Z,102914.75
2022-12-19T01:21:57.455Z,102912.97
2022-12-19T01:25:01.297Z,102909.53
2022-12-19T01:28:06.775Z,102890.00
2022-12-19T01:31:10.258Z,102894.56
2022-12-19T01:34:15.784Z,102890.16
2022-12-19T01:37:19.889Z,102887.53
2022-12-19T01:40:23.894Z,102880.44
2022-12-19T01:43:31.760Z,102872.53
2022-12-19T01:46:46.350Z,102861.88
2022-12-19T01:49:49.888Z,102865.47
2022-12-19T01:52:54.007Z,102859.22
2022-12-19T01:55:58.064Z,102861.88
2022-12-19T01:59:07.048Z,102868.13
2022-12-19T02:02:26.941Z,102869.03
2022-12-19T02:05:32.615Z,102861.00
2022-12-19T02:08:38.130Z,102855.72
2022-12-19T02:11:41.490Z,102869.03
2022-12-19T02:14:45.359Z,102858.38
2022-12-19T02:18:11.931Z,102858.41
2022-12-19T02:21:29.060Z,102858.47
2022-12-19T02:24:51.980Z,102852.25
2022-12-19T02:28:21.569Z,102853.94
2022-12-19T02:31:32.703Z,102867.25
2022-12-19T02:35:02.388Z,102865.41
2022-12-19T02:38:09.195Z,102864.53
2022-12-19T02:41:27.436Z,102869.84
2022-12-19T02:44:51.632Z,102868.97
2022-12-19T02:47:55.991Z,102875.22
2022-12-19T02:50:59.590Z,102876.09
2022-12-19T02:54:03.091Z,102876.12
2022-12-19T02:57:20.381Z,102877.06
2022-12-19T03:00:27.728Z,102877.13
2022-12-19T03:03:56.848Z,102880.72
2022-12-19T03:07:34.371Z,102876.31
2022-12-19T03:10:50.020Z,102884.28
2022-12-19T03:14:26.719Z,102869.34
2022-12-19T03:17:36.795Z,102864.91
2022-12-19T03:20:45.972Z,102864.00
2022-12-19T03:23:52.909Z,102859.59
2022-12-19T03:27:08.705Z,102843.69
2022-12-19T03:30:14.249Z,102841.88
2022-12-19T03:33:19.721Z,102837.38
2022-12-19T03:36:30.697Z,102832.00
2022-12-19T03:39:34.736Z,102832.88
2022-12-19T03:42:59.821Z,102837.34
2022-12-19T03:46:16.559Z,102834.69
2022-12-19T03:49:20.278Z,102840.91
2022-12-19T03:52:38.682Z,102848.03
2022-12-19T03:55:50.190Z,102853.44
2022-12-19T03:59:02.234Z,102855.25
2022-12-19T04:02:07.112Z,102852.63
2022-12-19T04:05:15.899Z,102851.78
2022-12-19T04:08:19.607Z,102856.28
2022-12-19T04:11:29.118Z,102845.66
2022-12-19T04:14:35.813Z,102854.66
2022-12-19T04:17:50.964Z,102854.66
2022-12-19T04:21:19.049Z,102850.31
2022-12-19T04:24:30.367Z,102848.62
2022-12-19T04:27:37.541Z,102854.81
2022-12-19T04:30:42.937Z,102850.41
2022-12-19T04:33:46.627Z,102862.84
2022-12-19T04:36:51.292Z,102854.88
2022-12-19T04:39:54.490Z,102856.72
2022-12-19T04:42:57.932Z,102864.66
2022-12-19T04:46:01.071Z,102846.91
2022-12-19T04:49:04.489Z,102849.59
2022-12-19T04:52:08.014Z,102853.16
2022-12-19T04:55:12.015Z,102846.97
2022-12-19T04:58:19.032Z,102862.84
2022-12-19T05:01:25.067Z,102867.31
2022-12-19T05:04:28.628Z,102856.72
2022-12-19T05:07:32.002Z,102855.81
2022-12-19T05:10:36.913Z,102862.84
2022-12-19T05:13:41.660Z,102859.34
2022-12-19T05:16:44.812Z,102852.28
2022-12-19T05:19:48.247Z,102861.13
2022-12-19T05:22:51.521Z,102855.69
2022-12-19T05:25:58.831Z,102853.09
2022-12-19T05:29:01.982Z,102851.31
2022-12-19T05:32:08.575Z,102845.06
2022-12-19T05:35:11.703Z,102837.13
2022-12-19T05:38:15.172Z,102845.09
2022-12-19T05:41:21.148Z,102853.09
2022-12-19T05:44:24.739Z,102852.28
2022-12-19T05:47:28.261Z,102837.28
2022-12-19T05:50:31.779Z,102841.69
2022-12-19T05:53:44.986Z,102847.88
2022-12-19T05:56:48.352Z,102834.59
2022-12-19T05:59:51.547Z,102840.88
2022-12-19T06:02:59.720Z,102839.97
2022-12-19T06:06:09.776Z,102840.88
2022-12-19T06:09:12.921Z,102845.41
2022-12-19T06:12:16.516Z,102856.09
2022-12-19T06:15:19.650Z,102861.34
2022-12-19T06:18:23.006Z,102850.00
2022-12-19T06:21:26.307Z,102852.78
2022-12-19T06:24:29.775Z,102862.50
2022-12-19T06:27:34.135Z,102860.75
2022-12-19T06:30:37.679Z,102859.00
2022-12-19T06:33:41.656Z,102855.50
2022-12-19T06:36:45.900Z,102847.63
2022-12-19T06:39:51.700Z,102846.75
2022-12-19T06:42:55.118Z,102853.87
2022-12-19T06:45:59.327Z,102860.13
2022-12-19T06:49:03.235Z,102861.09
2022-12-19T06:52:09.132Z,102875.31
2022-12-19T06:55:12.713Z,102868.22
2022-12-19T06:58:19.111Z,102874.50
2022-12-19T07:01:58.786Z,102876.28
2022-12-19T07:05:07.738Z,102879.88
2022-12-19T07:08:11.355Z,102879.94
2022-12-19T07:11:15.097Z,102875.50
2022-12-19T07:14:21.613Z,102877.28
2022-12-19T07:17:30.287Z,102886.19
2022-12-19T07:20:40.615Z,102885.31
2022-12-19T07:23:46.852Z,102880.06
2022-12-19T07:26:51.382Z,102886.28
2022-12-19T07:29:55.228Z,102887.22
2022-12-19T07:32:58.988Z,102885.38
2022-12-19T07:36:02.365Z,102894.31
2022-12-19T07:39:05.989Z,102896.12
2022-12-19T07:42:09.106Z,102885.56
2022-12-19T07:45:13.363Z,102884.66
2022-12-19T07:48:16.561Z,102883.81
2022-12-19T07:51:19.946Z,102881.22
2022-12-19T07:54:22.992Z,102880.34
2022-12-19T07:57:26.515Z,102880.25
2022-12-19T08:00:31.571Z,102896.00
2022-12-19T08:03:36.091Z,102892.34
2022-12-19T08:06:41.386Z,102898.63
2022-12-19T08:09:45.117Z,102908.34
2022-12-19T08:12:49.113Z,102919.75
2022-12-19T08:15:52.466Z,102908.25
2022-12-19T08:18:55.933Z,102910.88
2022-12-19T08:21:59.556Z,102912.81
2022-12-19T08:25:03.946Z,102911.31
2022-12-19T08:28:08.621Z,102914.97
2022-12-19T08:31:20.034Z,102909.13
2022-12-19T08:34:23.603Z,102909.97
2022-12-19T08:37:26.769Z,102915.00
2022-12-19T08:40:31.648Z,102912.34
2022-12-19T08:43:36.731Z,102899.59
2022-12-19T08:46:44.939Z,102895.78
2022-12-19T08:49:51.332Z,102900.78
2022-12-19T08:52:54.836Z,102900.53
2022-12-19T08:56:00.784Z,102895.91
2022-12-19T08:59:06.187Z,102898.72
2022-12-19T09:02:11.423Z,102895.34
2022-12-19T09:06:00.117Z,102892.25
2022-12-19T09:08:41.113Z,102882.88
2022-12-19T09:11:47.712Z,102889.31
2022-12-19T09:14:51.559Z,102896.56
2022-12-19T09:17:55.089Z,102895.38
2022-12-19T09:21:00.152Z,102886.72
2022-12-19T09:24:07.913Z,102876.63
2022-12-19T09:27:11.358Z,102886.06
2022-12-19T09:30:15.991Z,102887.69
2022-12-19T09:33:19.126Z,102910.75
2022-12-19T09:36:24.679Z,102898.41
2022-12-19T09:39:28.270Z,102891.94
2022-12-19T09:42:43.594Z,102885.28
2022-12-19T09:45:55.505Z,102873.28
2022-12-19T09:49:02.112Z,102875.75
2022-12-19T09:52:12.217Z,102875.03
2022-12-19T09:55:31.768Z,102878.50
2022-12-19T09:58:43.537Z,102871.19
2022-12-19T10:02:20.081Z,102871.34
2022-12-19T10:06:48.601Z,102868.53
2022-12-19T10:10:57.230Z,102863.44
2022-12-19T10:13:12.191Z,102862.44
2022-12-19T10:16:31.398Z,102852.09
2022-12-19T10:19:52.836Z,102854.75
2022-12-19T10:23:02.062Z,102849.56
2022-12-19T10:26:18.869Z,102844.16
2022-12-19T10:29:43.579Z,102847.97
2022-12-19T10:32:57.067Z,102849.25
2022-12-19T10:36:03.177Z,102833.19
2022-12-19T10:39:21.221Z,102837.78
2022-12-19T10:42:52.797Z,102832.69
2022-12-19T10:46:02.857Z,102830.28
2022-12-19T10:49:18.904Z,102826.53
2022-12-19T10:52:46.241Z,102823.44
2022-12-19T10:55:51.707Z,102818.97
2022-12-19T10:59:00.515Z,102816.25
2022-12-19T11:02:26.908Z,102823.22
2022-12-19T11:05:41.576Z,102817.97
2022-12-19T11:08:44.723Z,102814.59
2022-12-19T11:14:41.828Z,102819.91
2022-12-19T11:18:57.971Z,102821.88
2022-12-19T11:27:21.071Z,102814.84
2022-12-19T11:29:39.997Z,102814.78
2022-12-19T11:30:41.545Z,102808.59
2022-12-19T11:33:13.534Z,102795.34
2022-12-19T11:36:35.884Z,102790.66
2022-12-19T11:39:57.733Z,102780.38
2022-12-19T11:43:43.219Z,102779.53
2022-12-19T11:46:45.371Z,102774.19
2022-12-19T11:49:58.293Z,102769.56
2022-12-19T11:53:19.374Z,102771.19
2022-12-19T11:56:25.855Z,102766.59
2022-12-19T11:59:38.352Z,102763.91
2022-12-19T12:02:57.768Z,102759.41
2022-12-19T12:06:06.935Z,102764.72
2022-12-19T12:15:04.839Z,102751.44
2022-12-19T12:23:46.662Z,102738.19
2022-12-19T12:28:19.519Z,102730.06
2022-12-19T12:31:22.236Z,102738.63
2022-12-19T12:31:40.239Z,102734.97
2022-12-19T12:31:45.126Z,102738.47
2022-12-19T12:35:42.376Z,102740.28
2022-12-19T12:39:46.556Z,102732.41
2022-12-19T12:43:05.485Z,102729.84
2022-12-19T12:46:23.625Z,102737.00
2022-12-19T12:49:43.872Z,102734.06
2022-12-19T12:52:54.963Z,102737.69
2022-12-19T12:56:00.952Z,102732.41
2022-12-19T12:59:22.845Z,102725.41
2022-12-19T13:02:26.386Z,102729.75
2022-12-19T13:05:36.855Z,102712.88
2022-12-19T13:08:47.857Z,102723.34
2022-12-19T13:12:16.997Z,102718.06
2022-12-19T13:15:28.651Z,102716.38
2022-12-19T13:18:32.077Z,102706.00
2022-12-19T13:22:09.512Z,102704.56
2022-12-19T13:25:36.712Z,102686.59
2022-12-19T13:28:42.565Z,102700.63
2022-12-19T13:32:10.989Z,102698.63
2022-12-19T13:36:13.596Z,102699.38
2022-12-19T13:39:57.350Z,102703.75
2022-12-19T13:42:45.395Z,102698.31
2022-12-19T13:46:00.680Z,102689.34
2022-12-19T13:49:10.783Z,102689.34
2022-12-19T13:52:14.471Z,102687.44
2022-12-19T13:55:18.016Z,102699.88
2022-12-19T13:58:29.210Z,102695.44
2022-12-19T14:01:35.815Z,102689.16
2022-12-19T14:04:40.983Z,102692.69
2022-12-19T14:07:46.225Z,102700.53
2022-12-19T14:11:40.891Z,102704.91
2022-12-19T14:14:36.491Z,102688.88
2022-12-19T14:17:47.280Z,102684.31
2022-12-19T14:22:06.034Z,102685.03
2022-12-19T14:24:30.268Z,102683.97
2022-12-19T14:28:23.599Z,102677.56
2022-12-19T14:31:16.920Z,102681.97
2022-12-19T14:35:23.766Z,102688.19
2022-12-19T14:39:20.702Z,102688.94
2022-12-19T14:41:46.443Z,102692.50
2022-12-19T14:51:51.662Z,102684.34
2022-12-19T14:54:10.726Z,102677.97
2022-12-19T14:54:29.352Z,102678.72
2022-12-19T14:56:08.368Z,102680.56
2022-12-19T14:59:00.615Z,102676.03
2022-12-19T15:02:07.041Z,102678.88
2022-12-19T15:05:17.399Z,102680.50
2022-12-19T15:09:17.546Z,102683.78
2022-12-19T15:14:53.479Z,102692.38
2022-12-19T15:15:56.733Z,102686.75
2022-12-19T15:19:02.008Z,102701.37
2022-12-19T15:22:05.101Z,102700.09
2022-12-19T15:25:28.500Z,102705.88
2022-12-19T15:28:42.540Z,102706.47
2022-12-19T15:31:46.734Z,102707.94
2022-12-19T15:34:51.717Z,102700.06
2022-12-19T15:37:55.465Z,102708.09
2022-12-19T15:41:01.427Z,102694.03
2022-12-19T15:44:15.454Z,102696.69
2022-12-19T15:47:23.419Z,102692.31
2022-12-19T15:50:29.691Z,102685.94
2022-12-19T15:53:40.738Z,102682.06
2022-12-19T15:56:53.347Z,102690.66
2022-12-19T15:59:59.603Z,102680.84
2022-12-19T16:06:27.175Z,102669.19
2022-12-19T16:09:30.263Z,102682.28
2022-12-19T16:12:44.073Z,102681.25
2022-12-19T16:15:47.798Z,102676.81
2022-12-19T16:18:51.726Z,102675.00
2022-12-19T16:21:56.258Z,102676.59
2022-12-19T16:24:59.590Z,102666.31
2022-12-19T16:28:05.719Z,102657.78
2022-12-19T16:31:24.011Z,102655.94
2022-12-19T16:34:27.117Z,102659.34
2022-12-19T16:37:32.594Z,102666.00
2022-12-19T16:40:35.742Z,102662.75
2022-12-19T16:43:42.979Z,102652.44
2022-12-19T16:46:50.951Z,102649.12
2022-12-19T16:49:55.163Z,102652.03
2022-12-19T16:52:58.349Z,102652.31
2022-12-19T16:56:03.444Z,102654.22
2022-12-19T16:59:20.395Z,102658.84
2022-12-19T17:02:45.221Z,102651.06
2022-12-19T17:05:48.310Z,102660.09
2022-12-19T17:08:52.709Z,102664.50
2022-12-19T17:12:03.744Z,102649.63
2022-12-19T17:15:18.485Z,102653.28
2022-12-19T17:18:33.183Z,102655.06
2022-12-19T17:21:37.157Z,102658.69
2022-12-19T17:24:41.914Z,102657.88
2022-12-19T17:27:45.260Z,102661.53
2022-12-19T17:31:02.795Z,102654.53
2022-12-19T17:34:18.749Z,102656.38
2022-12-19T17:37:21.880Z,102654.66
2022-12-19T17:40:31.478Z,102653.78
2022-12-19T17:43:34.616Z,102660.03
2022-12-19T17:46:38.627Z,102660.94
2022-12-19T17:49:42.440Z,102664.50
2022-12-19T17:52:46.483Z,102668.03
2022-12-19T17:55:50.183Z,102667.22
2022-12-19T17:58:57.115Z,102661.00
2022-12-19T18:02:00.458Z,102656.59
2022-12-19T18:05:05.292Z,102654.84
2022-12-19T18:08:20.462Z,102653.97
2022-12-19T18:11:26.332Z,102653.94
2022-12-19T18:14:29.411Z,102655.78
2022-12-19T18:17:33.225Z,102665.47
2022-12-19T18:20:37.508Z,102655.72
2022-12-19T18:23:42.368Z,102653.09
2022-12-19T18:26:46.052Z,102660.16
2022-12-19T18:29:50.094Z,102657.50
2022-12-19T18:32:59.074Z,102662.81
2022-12-19T18:36:02.572Z,102657.56
2022-12-19T18:39:19.414Z,102650.50
2022-12-19T18:42:23.380Z,102647.78
2022-12-19T18:45:40.383Z,102630.09
2022-12-19T18:48:45.291Z,102630.97
2022-12-19T18:51:49.446Z,102623.88
2022-12-19T18:54:53.201Z,102607.91
2022-12-19T18:57:56.378Z,102599.13
2022-12-19T19:01:01.523Z,102597.34
2022-12-19T19:04:05.664Z,102603.53
2022-12-19T19:07:10.196Z,102608.75
2022-12-19T19:10:28.017Z,102600.78
2022-12-19T19:13:32.151Z,102598.12
2022-12-19T19:16:37.060Z,102604.38
2022-12-19T19:19:41.345Z,102603.44
2022-12-19T19:22:46.098Z,102598.12
2022-12-19T19:25:49.918Z,102596.34
2022-12-19T19:28:53.548Z,102595.47
2022-12-19T19:31:57.033Z,102585.75
2022-12-19T19:35:02.066Z,102592.81
2022-12-19T19:38:09.146Z,102586.63
2022-12-19T19:41:12.843Z,102583.03
2022-12-19T19:44:17.385Z,102581.31
2022-12-19T19:47:32.898Z,102583.09
2022-12-19T19:50:36.611Z,102580.44
2022-12-19T19:53:40.448Z,102576.00
2022-12-19T19:56:44.587Z,102584.91
2022-12-19T19:59:48.590Z,102577.81
2022-12-19T20:02:53.150Z,102579.56
2022-12-19T20:06:01.540Z,102574.25
2022-12-19T20:09:05.214Z,102580.47
2022-12-19T20:12:09.438Z,102579.53
2022-12-19T20:15:12.785Z,102589.28
2022-12-19T20:18:16.594Z,102590.16
2022-12-19T20:21:21.494Z,102585.75
2022-12-19T20:24:24.968Z,102591.91
2022-12-19T20:27:28.443Z,102588.41
2022-12-19T20:30:34.105Z,102587.53
2022-12-19T20:33:38.971Z,102583.97
2022-12-19T20:36:44.696Z,102578.66
2022-12-19T20:39:49.803Z,102576.88
2022-12-19T20:42:53.925Z,102581.31
2022-12-19T20:46:02.543Z,102588.44
2022-12-19T20:49:08.009Z,102594.62
2022-12-19T20:52:12.391Z,102583.97
2022-12-19T20:55:16.013Z,102576.88
2022-12-19T20:58:19.782Z,102576.88
2022-12-19T21:01:25.540Z,102580.38
2022-12-19T21:04:30.980Z,102589.16
2022-12-19T21:07:34.626Z,102575.87
2022-12-19T21:10:38.512Z,102577.66
2022-12-19T21:13:42.371Z,102581.19
2022-12-19T21:16:48.828Z,102570.59
2022-12-19T21:19:52.268Z,102567.88
2022-12-19T21:22:55.595Z,102576.72
2022-12-19T21:26:01.147Z,102571.41
2022-12-19T21:29:05.162Z,102577.59
2022-12-19T21:32:13.451Z,102557.25
2022-12-19T21:35:20.097Z,102542.16
2022-12-19T21:38:24.616Z,102553.66
2022-12-19T21:41:27.707Z,102552.72
2022-12-19T21:44:31.101Z,102550.06
2022-12-19T21:47:34.315Z,102551.00
2022-12-19T21:50:39.034Z,102565.22
2022-12-19T21:53:42.580Z,102572.25
2022-12-19T21:56:47.189Z,102568.72
2022-12-19T21:59:50.548Z,102567.88
2022-12-19T22:03:13.430Z,102562.56
2022-12-19T22:06:28.255Z,102559.91
2022-12-19T22:09:33.036Z,102547.50
2022-12-19T22:12:36.470Z,102553.62
2022-12-19T22:15:40.967Z,102551.91
2022-12-19T22:18:48.208Z,102540.41
2022-12-19T22:21:52.176Z,102535.09
2022-12-19T22:24:55.598Z,102543.06
2022-12-19T22:27:58.755Z,102529.78
2022-12-19T22:31:03.384Z,102525.37
2022-12-19T22:34:12.668Z,102521.78
2022-12-19T22:37:16.063Z,102513.88
2022-12-19T22:40:19.452Z,102516.53
2022-12-19T22:43:23.968Z,102508.56
2022-12-19T22:46:30.208Z,102513.81
2022-12-19T22:49:33.695Z,102497.91
2022-12-19T22:52:39.362Z,102497.06
2022-12-19T22:55:43.231Z,102468.72
2022-12-19T22:58:48.502Z,102473.97
2022-12-19T23:01:53.081Z,102466.91
2022-12-19T23:04:56.465Z,102473.03
2022-12-19T23:07:59.957Z,102468.62
2022-12-19T23:11:05.020Z,102459.75
2022-12-19T23:14:12.182Z,102484.47
2022-12-19T23:17:15.441Z,102485.41
2022-12-19T23:20:18.911Z,102488.13
2022-12-19T23:23:21.985Z,102475.75
2022-12-19T23:26:28.067Z,102462.41
2022-12-19T23:29:31.271Z,102465.09
2022-12-19T23:32:34.987Z,102463.31
2022-12-19T23:35:38.108Z,102462.41
2022-12-19T23:38:43.461Z,102465.09
2022-12-19T23:41:47.520Z,102455.31
2022-12-19T23:44:51.158Z,102457.94
2022-12-19T23:47:54.264Z,102457.03
2022-12-19T23:51:02.622Z,102465.91
2022-12-19T23:54:06.085Z,102451.69
2022-12-19T23:57:09.566Z,102462.31
